Descanso, CA

6:03 AM PDT on September 02, 2015 (GMT -0700)
MesoWest | | Change Station
CLOSE
Current Station
Personal Weather Station
Location: Guatay, CA
Elevation: 4740 ft
Nearby Weather Stations

Elev 4740 ft 32.93 °N, 116.53 °W | Updated 33 minutes ago

Partly Cloudy
Partly Cloudy
63.0 °F
Feels Like 63.0 °F
N
4.0
Wind Variable Wind from ESE
Gusts 7.0 mph

Today
High -- | Low -- °F
--% Chance of Precip.
Yesterday
High -- | Low -- °F
Precip. -- in
6:21 AM 7:09 PM
Waning Gibbous, 80% visible
Pressure 29.91 in
Visibility -9999.0 miles
Clouds
Dew Point 11.0 °F
Humidity 13%
Rainfall in
Snow Depth Not available.
UV Not available.
Pollen 7.00 out of 12
Air Quality Not available.
Flu Activity Not available.
METAR KCZZ 021252Z AUTO 04005KT 09/02 A2998 RMK AO1 SLP128 T00890017
Pressure 29.91 in
Visibility -9999.0 miles
Clouds
Dew Point 11.0 °F
Humidity 13%
Rainfall in
Snow Depth Not available.
UV Not available.
Pollen 7.00 out of 12
Air Quality Not available.
Flu Activity Not available.
METAR KCZZ 021252Z AUTO 04005KT 09/02 A2998 RMK AO1 SLP128 T00890017

10-Day Weather Forecast

×

Almanac

Astronomy

Sep. 02, 2015 Rise Set
Actual Time
Civil Twilight
Nautical Twilight
Astronomical Twilight
Moon
Length of Visible Light
Length of Day
Tomorrow will be .
, % of the Moon is Illuminated

Today's Extremes

State Highs State Lows

Community

WunderPhotos

Upload Photos

1,851,747 photos uploaded!

WunderBlogs® & News

Nearby

Air Quality

  Air Quality AQ Index Pollutant
Not available.

Snow Depth

Station Depth Elevation

Earthquake Activity

City Distance Mag. Time & Date
Minimum magnitude displayed is 2.5.

Coastal Water Temperatures

Place Temperature

Stations

Nearby Weather Stations

Station Location Temp. Windchill Dew Point Humidity Wind Precip. Elev Updated Type